KLGU/LGU METAR and TAF weather

Enter ICAO airport designator
Station Type Date Time Source
KLGU METAR 2019/06/18 04:51 UTC NOAA

KLGU 180451Z AUTO 22008KT 10SM CLR 17/10 A3007 RMK AO2 SLP138 T01720100


Station Type Date Time Source
KLGU Decoded METAR 2019/06/18 04:51 UTC NOAA

LOGAN CACHE AIRPORT, UT, United States (KLGU) 41-47N 111-51W 1355M
Jun 18, 2019 - 12:51 AM EDT / 2019.06.18 0451 UTC
Wind: from the SW (220 degrees) at 9 MPH (8 KT):0
Visibility: 10 mile(s):0
Sky conditions: clear
Temperature: 63.0 F (17.2 C)
Dew Point: 50.0 F (10.0 C)
Relative Humidity: 62%
Pressure (altimeter): 30.07 in. Hg (1018 hPa)
ob: KLGU 180451Z AUTO 22008KT 10SM CLR 17/10 A3007 RMK AO2 SLP138 T01720100
cycle: 5

Station Type Date Time Source
KLGU TAF 2019/06/18 06:39 UTC NOAA

TAF KLGU 180536Z 1806/1906 VRB05KT P6SM BKN100
FM181700 32007KT P6SM SCT100 SCT200
FM190200 VRB04KT P6SM SCT200

Example: see airport list